Terminal Aerodrome Forecast
Issued by NWS La Crosse, WI

Home | Current Version | Previous Version | Text Only | Print | Product List | Glossary On
Versions: 1 2 3 4 5 6 7 8 9 10 11 12 13 14 15 16 17 18 19 20 21 22 23 24 25 26 27 28 29 30 31 32 33 34 35 36 37 38 39 40 41 42
000
FTUS43 KARX 011515 AAA
TAFLSE
TAF AMD
KLSE 011515Z 0115/0212 12007KT P6SM VCSH SCT013 BKN080
     FM012100 15007KT P6SM VCSH OVC020
     FM020300 16004KT 4SM BR OVC012
     FM020600 VRB03KT 2SM BR OVC008
     FM020800 VRB03KT 1/2SM FG OVC004=

USA.gov is the U.S. government's official web portal to all federal, state and local government web resources and services.